createdAt,value
2023-10-03T00:00:16.733Z,56.400000
2023-10-03T00:05:16.688Z,56.100000
2023-10-03T00:10:16.688Z,55.900000
2023-10-03T00:15:16.717Z,55.800000
2023-10-03T00:20:16.770Z,55.700000
2023-10-03T00:25:16.931Z,55.700000
2023-10-03T00:30:16.894Z,55.700000
2023-10-03T00:35:16.786Z,55.400000
2023-10-03T00:40:17.013Z,55.300000
2023-10-03T00:45:16.845Z,55.500000
2023-10-03T00:50:16.809Z,55.300000
2023-10-03T00:55:16.868Z,55.000000
2023-10-03T01:00:16.806Z,55.000000
2023-10-03T01:05:16.858Z,54.800000
2023-10-03T01:10:16.896Z,54.600000
2023-10-03T01:15:18.833Z,54.500000
2023-10-03T01:20:16.953Z,54.700000
2023-10-03T01:25:16.916Z,54.400000
2023-10-03T01:30:16.835Z,54.200000
2023-10-03T01:35:17.107Z,54.200000
2023-10-03T01:40:16.889Z,54.000000
2023-10-03T01:45:16.916Z,54.000000
2023-10-03T01:50:16.990Z,54.000000
2023-10-03T01:55:17.108Z,53.800000
2023-10-03T02:00:17.139Z,53.600000
2023-10-03T02:05:17.115Z,53.400000
2023-10-03T02:10:17.116Z,53.500000
2023-10-03T02:15:17.026Z,53.500000
2023-10-03T02:20:17.121Z,53.400000
2023-10-03T02:25:16.957Z,53.400000
2023-10-03T02:30:17.046Z,53.500000
2023-10-03T02:35:17.111Z,53.500000
2023-10-03T02:40:17.033Z,53.300000
2023-10-03T02:45:17.150Z,53.100000
2023-10-03T02:50:17.145Z,53.100000
2023-10-03T02:55:17.422Z,53.000000
2023-10-03T03:00:17.088Z,53.000000
2023-10-03T03:05:17.262Z,53.200000
2023-10-03T03:10:17.496Z,53.100000
2023-10-03T03:15:17.248Z,53.000000
2023-10-03T03:20:17.215Z,53.200000
2023-10-03T03:25:17.145Z,53.200000
2023-10-03T03:30:17.162Z,53.400000
2023-10-03T03:35:17.270Z,53.400000
2023-10-03T03:40:17.274Z,53.000000
2023-10-03T03:45:17.329Z,52.900000
2023-10-03T03:50:17.196Z,53.000000
2023-10-03T03:55:17.250Z,52.900000
2023-10-03T04:00:16.192Z,53.000000
2023-10-03T04:05:16.249Z,53.300000
2023-10-03T04:10:16.252Z,53.200000
2023-10-03T04:15:16.398Z,53.100000
2023-10-03T04:20:16.396Z,53.200000
2023-10-03T04:25:16.253Z,53.100000
2023-10-03T04:30:16.233Z,53.000000
2023-10-03T04:35:16.277Z,53.000000
2023-10-03T04:40:16.300Z,53.200000
2023-10-03T04:45:16.368Z,53.300000
2023-10-03T04:50:16.371Z,53.400000
2023-10-03T04:55:16.312Z,53.300000
2023-10-03T05:00:16.649Z,53.500000
2023-10-03T05:05:16.396Z,53.300000
2023-10-03T05:10:16.346Z,53.200000
2023-10-03T05:15:16.429Z,53.200000
2023-10-03T05:20:16.450Z,53.300000
2023-10-03T05:25:16.486Z,53.200000
2023-10-03T05:30:16.570Z,53.100000
2023-10-03T05:35:16.604Z,53.200000
2023-10-03T05:40:16.592Z,53.200000
2023-10-03T05:45:16.424Z,53.200000
2023-10-03T05:50:16.802Z,53.200000
2023-10-03T05:55:16.475Z,53.500000
2023-10-03T06:00:16.610Z,53.500000
2023-10-03T06:05:16.687Z,53.300000
2023-10-03T06:10:16.628Z,53.300000
2023-10-03T06:15:16.521Z,53.100000
2023-10-03T06:20:16.744Z,53.100000
2023-10-03T06:25:16.617Z,53.200000
2023-10-03T06:30:16.546Z,53.100000
2023-10-03T06:35:16.495Z,53.400000
2023-10-03T06:40:16.623Z,53.200000
2023-10-03T06:45:16.640Z,53.100000
2023-10-03T06:50:16.739Z,53.000000
2023-10-03T06:55:16.619Z,53.000000
2023-10-03T07:00:16.754Z,53.100000
2023-10-03T07:05:16.491Z,53.100000
2023-10-03T07:10:16.655Z,53.200000
2023-10-03T07:15:16.665Z,53.200000
2023-10-03T07:20:16.802Z,53.200000
2023-10-03T07:25:16.719Z,53.200000
2023-10-03T07:30:17.026Z,53.200000
2023-10-03T07:35:16.709Z,53.300000
2023-10-03T07:40:16.723Z,53.300000
2023-10-03T07:45:16.786Z,53.500000
2023-10-03T07:50:16.728Z,53.700000
2023-10-03T07:55:16.777Z,53.700000
2023-10-03T08:00:16.882Z,53.700000
2023-10-03T08:05:16.855Z,53.800000
2023-10-03T08:10:16.792Z,54.000000
2023-10-03T08:15:16.990Z,54.200000
2023-10-03T08:20:16.821Z,54.000000
2023-10-03T08:25:16.938Z,54.000000
2023-10-03T08:30:17.117Z,54.100000
2023-10-03T08:35:16.825Z,54.200000
2023-10-03T08:40:16.991Z,54.400000
2023-10-03T08:45:16.949Z,54.600000
2023-10-03T08:50:16.864Z,54.800000
2023-10-03T08:55:16.941Z,54.600000
2023-10-03T09:00:17.654Z,54.400000
2023-10-03T09:05:16.906Z,54.300000
2023-10-03T09:10:16.968Z,54.300000
2023-10-03T09:15:16.853Z,54.500000
2023-10-03T09:20:16.945Z,54.200000
2023-10-03T09:25:17.031Z,54.100000
2023-10-03T09:30:16.974Z,54.000000
2023-10-03T09:35:17.017Z,53.900000
2023-10-03T09:40:17.427Z,54.000000
2023-10-03T09:45:17.834Z,54.200000
2023-10-03T09:50:17.131Z,54.000000
2023-10-03T09:55:17.080Z,54.000000
2023-10-03T10:00:17.024Z,54.200000
2023-10-03T10:05:17.146Z,54.100000
2023-10-03T10:10:16.994Z,54.100000
2023-10-03T10:15:18.478Z,54.000000
2023-10-03T10:20:18.914Z,54.200000
2023-10-03T10:25:17.059Z,54.300000
2023-10-03T10:30:17.058Z,54.700000
2023-10-03T10:35:17.126Z,54.700000
2023-10-03T10:40:17.271Z,54.700000
2023-10-03T10:45:17.233Z,54.800000
2023-10-03T10:50:22.335Z,55.000000
2023-10-03T10:55:17.126Z,55.100000
2023-10-03T11:00:17.283Z,55.100000
2023-10-03T11:05:17.096Z,55.200000
2023-10-03T11:10:34.104Z,55.600000
2023-10-03T11:15:17.473Z,55.700000
2023-10-03T11:20:17.164Z,55.800000
2023-10-03T11:25:17.202Z,56.200000
2023-10-03T11:30:17.411Z,56.600000
2023-10-03T11:35:17.251Z,56.800000
2023-10-03T11:40:17.241Z,56.900000
2023-10-03T11:45:17.248Z,57.200000
2023-10-03T11:50:17.382Z,57.500000
2023-10-03T11:55:17.274Z,57.800000
2023-10-03T12:00:17.280Z,58.300000
2023-10-03T12:05:17.335Z,58.600000
2023-10-03T12:10:17.303Z,59.000000
2023-10-03T12:15:17.308Z,59.500000
2023-10-03T12:20:17.342Z,59.800000
2023-10-03T12:25:17.362Z,60.300000
2023-10-03T12:30:17.331Z,60.900000
2023-10-03T12:35:17.418Z,61.500000
2023-10-03T12:40:17.590Z,62.100000
2023-10-03T12:45:17.440Z,62.700000
2023-10-03T12:50:17.385Z,63.300000
2023-10-03T12:55:17.427Z,63.700000
2023-10-03T13:00:15.462Z,64.100000
2023-10-03T13:05:15.310Z,64.400000
2023-10-03T13:10:15.666Z,64.700000
2023-10-03T13:15:15.568Z,64.900000
2023-10-03T13:20:15.527Z,65.200000
2023-10-03T13:25:15.442Z,65.500000
2023-10-03T13:30:15.480Z,65.900000
2023-10-03T13:35:15.448Z,66.200000
2023-10-03T13:40:15.934Z,66.700000
2023-10-03T13:45:15.511Z,67.100000
2023-10-03T13:50:15.535Z,67.600000
2023-10-03T13:55:15.548Z,68.100000
2023-10-03T14:00:15.843Z,68.400000
2023-10-03T14:05:15.650Z,68.900000
2023-10-03T14:10:15.568Z,69.400000
2023-10-03T14:15:15.774Z,69.800000
2023-10-03T14:20:15.560Z,70.200000
2023-10-03T14:25:15.627Z,70.500000
2023-10-03T14:30:15.860Z,70.800000
2023-10-03T14:35:15.693Z,71.300000
2023-10-03T14:40:15.714Z,71.800000
2023-10-03T14:45:15.808Z,72.100000
2023-10-03T14:50:15.648Z,72.400000
2023-10-03T14:55:15.721Z,72.800000
2023-10-03T15:00:15.784Z,73.000000
2023-10-03T15:05:15.638Z,73.300000
2023-10-03T15:10:15.813Z,73.800000
2023-10-03T15:15:15.806Z,74.100000
2023-10-03T15:20:15.762Z,74.400000
2023-10-03T15:25:15.983Z,74.900000
2023-10-03T15:30:15.804Z,75.100000
2023-10-03T15:35:15.859Z,75.200000
2023-10-03T15:40:15.763Z,75.700000
2023-10-03T15:45:17.452Z,76.000000
2023-10-03T15:50:15.816Z,76.300000
2023-10-03T15:55:15.841Z,76.300000
2023-10-03T16:00:16.261Z,76.400000
2023-10-03T16:05:15.902Z,76.600000
2023-10-03T16:10:15.864Z,76.800000
2023-10-03T16:15:16.848Z,76.900000
2023-10-03T16:20:16.005Z,77.100000
2023-10-03T16:25:16.024Z,77.400000
2023-10-03T16:30:15.946Z,77.600000
2023-10-03T16:35:16.653Z,78.000000
2023-10-03T16:40:16.026Z,78.200000
2023-10-03T16:45:18.021Z,78.500000
2023-10-03T16:50:16.026Z,79.000000
2023-10-03T16:55:16.069Z,79.300000
2023-10-03T17:00:16.114Z,79.600000
2023-10-03T17:05:15.927Z,79.800000
2023-10-03T17:10:16.019Z,79.800000
2023-10-03T17:15:16.057Z,79.900000
2023-10-03T17:20:16.069Z,79.900000
2023-10-03T17:25:16.008Z,80.100000
2023-10-03T17:30:16.084Z,80.000000
2023-10-03T17:35:27.040Z,80.100000
2023-10-03T17:40:16.287Z,80.400000
2023-10-03T17:45:16.084Z,80.300000
2023-10-03T17:50:16.055Z,80.500000
2023-10-03T17:55:16.204Z,81.100000
2023-10-03T18:00:16.205Z,81.500000
2023-10-03T18:05:16.084Z,81.600000
2023-10-03T18:10:16.214Z,81.500000
2023-10-03T18:15:17.011Z,81.300000
2023-10-03T18:20:16.338Z,81.100000
2023-10-03T18:25:16.125Z,81.100000
2023-10-03T18:30:16.196Z,81.300000
2023-10-03T18:35:16.965Z,81.400000
2023-10-03T18:40:16.159Z,81.500000
2023-10-03T18:45:16.221Z,81.400000
2023-10-03T18:50:16.403Z,81.400000
2023-10-03T18:55:16.377Z,81.400000
2023-10-03T19:00:16.282Z,81.200000
2023-10-03T19:05:16.086Z,81.100000
2023-10-03T19:10:16.248Z,81.000000
2023-10-03T19:15:16.222Z,81.200000
2023-10-03T19:20:16.351Z,81.600000
2023-10-03T19:25:16.251Z,81.800000
2023-10-03T19:30:20.090Z,81.600000
2023-10-03T19:35:16.239Z,81.300000
2023-10-03T19:40:16.417Z,81.300000
2023-10-03T19:45:16.507Z,81.200000
2023-10-03T19:50:16.799Z,81.100000
2023-10-03T19:55:16.345Z,81.000000
2023-10-03T20:00:16.458Z,81.000000
2023-10-03T20:05:16.348Z,80.900000
2023-10-03T20:10:17.130Z,80.800000
2023-10-03T20:15:16.504Z,80.900000
2023-10-03T20:20:16.388Z,80.900000
2023-10-03T20:25:16.366Z,81.000000
2023-10-03T20:30:16.438Z,81.000000
2023-10-03T20:35:16.476Z,81.000000
2023-10-03T20:40:16.546Z,81.100000
2023-10-03T20:45:16.644Z,81.200000
2023-10-03T20:50:16.423Z,81.100000
2023-10-03T20:55:16.532Z,80.800000
2023-10-03T21:00:16.555Z,80.800000
2023-10-03T21:05:16.418Z,80.900000
2023-10-03T21:10:16.451Z,81.100000
2023-10-03T21:15:16.594Z,80.800000
2023-10-03T21:20:16.490Z,80.600000
2023-10-03T21:25:16.560Z,80.700000
2023-10-03T21:30:16.924Z,80.400000
2023-10-03T21:35:16.777Z,80.100000
2023-10-03T21:40:16.687Z,79.700000
2023-10-03T21:45:16.662Z,79.400000
2023-10-03T21:50:16.700Z,79.000000
2023-10-03T21:55:16.707Z,78.800000
2023-10-03T22:00:16.628Z,78.600000
2023-10-03T22:05:16.791Z,78.500000
2023-10-03T22:10:16.811Z,78.200000
2023-10-03T22:15:16.681Z,77.800000
2023-10-03T22:20:16.710Z,77.400000
2023-10-03T22:25:16.772Z,77.000000
2023-10-03T22:30:16.829Z,76.700000
2023-10-03T22:35:16.679Z,75.800000
2023-10-03T22:40:16.719Z,75.000000
2023-10-03T22:45:16.768Z,74.900000
2023-10-03T22:50:16.712Z,74.600000
2023-10-03T22:55:16.733Z,74.100000
2023-10-03T23:00:16.815Z,73.900000
2023-10-03T23:05:16.763Z,72.900000
2023-10-03T23:10:16.750Z,71.800000
2023-10-03T23:15:16.888Z,71.500000
2023-10-03T23:20:16.811Z,71.000000
2023-10-03T23:25:16.894Z,71.000000
2023-10-03T23:30:16.820Z,70.900000
2023-10-03T23:35:19.476Z,70.700000
2023-10-03T23:40:16.850Z,70.600000
2023-10-03T23:45:16.874Z,70.300000
2023-10-03T23:50:16.929Z,70.100000
2023-10-03T23:55:16.941Z,70.100000
